sensor_id;sensor_type;location;lat;lon;timestamp;P1;durP1;ratioP1;P2;durP2;ratioP2
15843;SDS011;50807;52.436;13.346;2023-01-19T00:00:02;9.55;;;8.60;;
15843;SDS011;50807;52.436;13.346;2023-01-19T00:00:35;10.38;;;9.35;;
15843;SDS011;50807;52.436;13.346;2023-01-19T00:01:05;9.47;;;8.57;;
15843;SDS011;50807;52.436;13.346;2023-01-19T00:01:36;9.60;;;8.60;;
15843;SDS011;50807;52.436;13.346;2023-01-19T00:02:08;9.85;;;8.85;;
15843;SDS011;50807;52.436;13.346;2023-01-19T00:02:39;9.87;;;8.87;;
15843;SDS011;50807;52.436;13.346;2023-01-19T00:03:10;9.68;;;8.77;;
15843;SDS011;50807;52.436;13.346;2023-01-19T00:03:44;9.85;;;8.80;;
15843;SDS011;50807;52.436;13.346;2023-01-19T00:04:15;10.75;;;8.63;;
15843;SDS011;50807;52.436;13.346;2023-01-19T00:04:46;10.20;;;9.20;;
15843;SDS011;50807;52.436;13.346;2023-01-19T00:05:19;10.43;;;9.50;;
15843;SDS011;50807;52.436;13.346;2023-01-19T00:05:50;10.30;;;9.27;;
15843;SDS011;50807;52.436;13.346;2023-01-19T00:06:22;10.20;;;9.20;;
15843;SDS011;50807;52.436;13.346;2023-01-19T00:06:54;9.50;;;8.60;;
15843;SDS011;50807;52.436;13.346;2023-01-19T00:07:25;11.10;;;9.90;;
15843;SDS011;50807;52.436;13.346;2023-01-19T00:07:56;9.90;;;8.90;;
15843;SDS011;50807;52.436;13.346;2023-01-19T00:08:43;10.38;;;9.38;;
15843;SDS011;50807;52.436;13.346;2023-01-19T00:09:14;10.18;;;9.18;;
15843;SDS011;50807;52.436;13.346;2023-01-19T00:09:46;9.95;;;9.05;;
15843;SDS011;50807;52.436;13.346;2023-01-19T00:10:17;10.57;;;9.37;;
15843;SDS011;50807;52.436;13.346;2023-01-19T00:10:48;10.47;;;9.50;;
15843;SDS011;50807;52.436;13.346;2023-01-19T00:11:20;9.48;;;8.52;;
15843;SDS011;50807;52.436;13.346;2023-01-19T00:11:55;11.02;;;9.85;;
15843;SDS011;50807;52.436;13.346;2023-01-19T00:12:25;10.97;;;9.53;;
15843;SDS011;50807;52.436;13.346;2023-01-19T00:12:56;10.17;;;9.20;;
15843;SDS011;50807;52.436;13.346;2023-01-19T00:13:28;10.18;;;9.18;;
15843;SDS011;50807;52.436;13.346;2023-01-19T00:13:59;10.03;;;9.00;;
15843;SDS011;50807;52.436;13.346;2023-01-19T00:14:30;9.87;;;8.93;;
15843;SDS011;50807;52.436;13.346;2023-01-19T00:15:02;9.60;;;8.65;;
15843;SDS011;50807;52.436;13.346;2023-01-19T00:15:34;10.48;;;9.40;;
15843;SDS011;50807;52.436;13.346;2023-01-19T00:16:06;9.70;;;8.80;;
15843;SDS011;50807;52.436;13.346;2023-01-19T00:16:38;10.05;;;9.07;;
15843;SDS011;50807;52.436;13.346;2023-01-19T00:17:08;10.00;;;9.10;;
15843;SDS011;50807;52.436;13.346;2023-01-19T00:17:40;9.38;;;8.52;;
15843;SDS011;50807;52.436;13.346;2023-01-19T00:18:11;10.47;;;9.57;;
15843;SDS011;50807;52.436;13.346;2023-01-19T00:18:42;10.37;;;9.27;;
15843;SDS011;50807;52.436;13.346;2023-01-19T00:19:14;10.07;;;9.07;;
15843;SDS011;50807;52.436;13.346;2023-01-19T00:19:44;10.60;;;9.60;;
15843;SDS011;50807;52.436;13.346;2023-01-19T00:20:15;9.57;;;8.47;;
15843;SDS011;50807;52.436;13.346;2023-01-19T00:20:48;11.00;;;8.90;;
15843;SDS011;50807;52.436;13.346;2023-01-19T00:21:19;10.18;;;9.18;;
15843;SDS011;50807;52.436;13.346;2023-01-19T00:21:52;10.07;;;9.10;;
15843;SDS011;50807;52.436;13.346;2023-01-19T00:22:24;9.30;;;8.45;;
15843;SDS011;50807;52.436;13.346;2023-01-19T00:22:54;10.10;;;9.10;;
15843;SDS011;50807;52.436;13.346;2023-01-19T00:23:25;10.10;;;9.10;;
15843;SDS011;50807;52.436;13.346;2023-01-19T00:23:57;9.25;;;8.43;;
15843;SDS011;50807;52.436;13.346;2023-01-19T00:24:28;9.57;;;8.67;;
15843;SDS011;50807;52.436;13.346;2023-01-19T00:24:58;10.03;;;9.07;;
15843;SDS011;50807;52.436;13.346;2023-01-19T00:25:30;9.98;;;8.93;;
15843;SDS011;50807;52.436;13.346;2023-01-19T00:26:01;9.73;;;8.83;;
15843;SDS011;50807;52.436;13.346;2023-01-19T00:26:32;10.87;;;8.97;;
15843;SDS011;50807;52.436;13.346;2023-01-19T00:27:04;9.88;;;8.88;;
15843;SDS011;50807;52.436;13.346;2023-01-19T00:27:34;10.60;;;9.50;;
15843;SDS011;50807;52.436;13.346;2023-01-19T00:28:05;10.70;;;9.60;;
15843;SDS011;50807;52.436;13.346;2023-01-19T00:28:37;10.50;;;9.45;;
15843;SDS011;50807;52.436;13.346;2023-01-19T00:29:08;9.87;;;8.87;;
15843;SDS011;50807;52.436;13.346;2023-01-19T00:29:41;10.32;;;9.32;;
15843;SDS011;50807;52.436;13.346;2023-01-19T00:30:15;9.80;;;8.90;;
15843;SDS011;50807;52.436;13.346;2023-01-19T00:30:46;9.10;;;8.23;;
15843;SDS011;50807;52.436;13.346;2023-01-19T00:31:20;9.25;;;8.43;;
15843;SDS011;50807;52.436;13.346;2023-01-19T00:31:51;9.32;;;8.43;;
15843;SDS011;50807;52.436;13.346;2023-01-19T00:32:23;9.38;;;8.52;;
15843;SDS011;50807;52.436;13.346;2023-01-19T00:32:54;9.70;;;8.83;;
15843;SDS011;50807;52.436;13.346;2023-01-19T00:33:25;9.40;;;8.50;;
15843;SDS011;50807;52.436;13.346;2023-01-19T00:33:57;10.00;;;9.10;;
15843;SDS011;50807;52.436;13.346;2023-01-19T00:34:28;9.70;;;8.68;;
15843;SDS011;50807;52.436;13.346;2023-01-19T00:35:06;8.95;;;8.05;;
15843;SDS011;50807;52.436;13.346;2023-01-19T00:35:37;9.90;;;8.90;;
15843;SDS011;50807;52.436;13.346;2023-01-19T00:36:09;10.00;;;9.10;;
15843;SDS011;50807;52.436;13.346;2023-01-19T00:36:40;10.47;;;9.47;;
15843;SDS011;50807;52.436;13.346;2023-01-19T00:37:14;9.82;;;8.82;;
15843;SDS011;50807;52.436;13.346;2023-01-19T00:37:47;9.68;;;8.77;;
15843;SDS011;50807;52.436;13.346;2023-01-19T00:38:18;10.17;;;9.17;;
15843;SDS011;50807;52.436;13.346;2023-01-19T00:38:50;9.73;;;8.82;;
15843;SDS011;50807;52.436;13.346;2023-01-19T00:39:22;9.95;;;8.70;;
15843;SDS011;50807;52.436;13.346;2023-01-19T00:39:53;9.07;;;8.05;;
15843;SDS011;50807;52.436;13.346;2023-01-19T00:40:23;9.63;;;8.77;;
15843;SDS011;50807;52.436;13.346;2023-01-19T00:40:54;9.52;;;8.52;;
15843;SDS011;50807;52.436;13.346;2023-01-19T00:41:26;9.85;;;8.95;;
15843;SDS011;50807;52.436;13.346;2023-01-19T00:42:12;9.93;;;9.00;;
15843;SDS011;50807;52.436;13.346;2023-01-19T00:43:02;10.68;;;8.93;;
15843;SDS011;50807;52.436;13.346;2023-01-19T00:43:34;9.38;;;8.40;;
15843;SDS011;50807;52.436;13.346;2023-01-19T00:44:04;9.53;;;8.60;;
15843;SDS011;50807;52.436;13.346;2023-01-19T00:44:36;9.57;;;8.63;;
15843;SDS011;50807;52.436;13.346;2023-01-19T00:45:08;9.90;;;9.00;;
15843;SDS011;50807;52.436;13.346;2023-01-19T00:45:41;11.00;;;8.70;;
15843;SDS011;50807;52.436;13.346;2023-01-19T00:46:14;10.00;;;9.00;;
15843;SDS011;50807;52.436;13.346;2023-01-19T00:46:45;9.40;;;8.50;;
15843;SDS011;50807;52.436;13.346;2023-01-19T00:47:16;9.57;;;8.67;;
15843;SDS011;50807;52.436;13.346;2023-01-19T00:47:48;10.48;;;9.48;;
15843;SDS011;50807;52.436;13.346;2023-01-19T00:48:23;9.20;;;8.30;;
15843;SDS011;50807;52.436;13.346;2023-01-19T00:48:54;9.50;;;8.53;;
15843;SDS011;50807;52.436;13.346;2023-01-19T00:49:26;9.63;;;8.73;;
15843;SDS011;50807;52.436;13.346;2023-01-19T00:49:56;9.77;;;8.77;;
15843;SDS011;50807;52.436;13.346;2023-01-19T00:50:28;9.77;;;8.88;;
15843;SDS011;50807;52.436;13.346;2023-01-19T00:51:01;10.20;;;9.20;;
15843;SDS011;50807;52.436;13.346;2023-01-19T00:51:32;11.20;;;8.70;;
15843;SDS011;50807;52.436;13.346;2023-01-19T00:52:03;9.77;;;8.73;;
15843;SDS011;50807;52.436;13.346;2023-01-19T00:52:37;9.70;;;8.70;;
15843;SDS011;50807;52.436;13.346;2023-01-19T00:53:09;9.75;;;8.57;;
15843;SDS011;50807;52.436;13.346;2023-01-19T00:53:40;9.50;;;8.50;;
15843;SDS011;50807;52.436;13.346;2023-01-19T00:54:11;9.83;;;8.87;;
15843;SDS011;50807;52.436;13.346;2023-01-19T00:54:42;9.52;;;8.57;;
15843;SDS011;50807;52.436;13.346;2023-01-19T00:55:13;10.37;;;9.37;;
15843;SDS011;50807;52.436;13.346;2023-01-19T00:55:45;10.75;;;8.82;;
15843;SDS011;50807;52.436;13.346;2023-01-19T00:56:17;10.40;;;9.32;;
15843;SDS011;50807;52.436;13.346;2023-01-19T00:56:48;9.60;;;8.70;;
15843;SDS011;50807;52.436;13.346;2023-01-19T00:57:19;10.30;;;9.32;;
15843;SDS011;50807;52.436;13.346;2023-01-19T00:57:50;10.50;;;9.40;;
15843;SDS011;50807;52.436;13.346;2023-01-19T00:58:21;9.98;;;8.98;;
15843;SDS011;50807;52.436;13.346;2023-01-19T00:58:52;9.83;;;8.83;;
15843;SDS011;50807;52.436;13.346;2023-01-19T00:59:23;9.47;;;8.67;;
15843;SDS011;50807;52.436;13.346;2023-01-19T00:59:55;10.40;;;9.30;;
15843;SDS011;50807;52.436;13.346;2023-01-19T01:00:26;9.43;;;8.43;;
15843;SDS011;50807;52.436;13.346;2023-01-19T01:00:57;10.17;;;9.17;;
15843;SDS011;50807;52.436;13.346;2023-01-19T01:01:32;9.70;;;8.70;;
15843;SDS011;50807;52.436;13.346;2023-01-19T01:02:03;10.23;;;9.13;;
15843;SDS011;50807;52.436;13.346;2023-01-19T01:02:34;9.50;;;8.50;;
15843;SDS011;50807;52.436;13.346;2023-01-19T01:03:06;10.38;;;9.30;;
15843;SDS011;50807;52.436;13.346;2023-01-19T01:03:37;9.70;;;8.80;;
15843;SDS011;50807;52.436;13.346;2023-01-19T01:04:08;9.63;;;8.60;;
15843;SDS011;50807;52.436;13.346;2023-01-19T01:04:41;9.48;;;8.25;;
15843;SDS011;50807;52.436;13.346;2023-01-19T01:05:11;9.60;;;8.60;;
15843;SDS011;50807;52.436;13.346;2023-01-19T01:05:42;9.75;;;8.50;;
15843;SDS011;50807;52.436;13.346;2023-01-19T01:06:14;9.95;;;9.05;;
15843;SDS011;50807;52.436;13.346;2023-01-19T01:06:45;10.17;;;9.17;;
15843;SDS011;50807;52.436;13.346;2023-01-19T01:07:16;10.00;;;8.83;;
15843;SDS011;50807;52.436;13.346;2023-01-19T01:07:48;9.97;;;8.97;;
15843;SDS011;50807;52.436;13.346;2023-01-19T01:08:20;10.60;;;9.50;;
15843;SDS011;50807;52.436;13.346;2023-01-19T01:08:51;10.53;;;9.47;;
15843;SDS011;50807;52.436;13.346;2023-01-19T01:09:22;10.27;;;8.87;;
15843;SDS011;50807;52.436;13.346;2023-01-19T01:09:54;10.05;;;9.07;;
15843;SDS011;50807;52.436;13.346;2023-01-19T01:10:26;9.68;;;8.68;;
15843;SDS011;50807;52.436;13.346;2023-01-19T01:10:59;9.45;;;8.55;;
15843;SDS011;50807;52.436;13.346;2023-01-19T01:11:30;10.25;;;9.25;;
15843;SDS011;50807;52.436;13.346;2023-01-19T01:12:01;9.60;;;8.70;;
15843;SDS011;50807;52.436;13.346;2023-01-19T01:12:34;10.40;;;9.38;;
15843;SDS011;50807;52.436;13.346;2023-01-19T01:13:04;10.17;;;9.03;;
15843;SDS011;50807;52.436;13.346;2023-01-19T01:13:37;10.57;;;9.50;;
15843;SDS011;50807;52.436;13.346;2023-01-19T01:14:08;10.60;;;9.57;;
15843;SDS011;50807;52.436;13.346;2023-01-19T01:14:40;10.25;;;9.25;;
15843;SDS011;50807;52.436;13.346;2023-01-19T01:15:13;9.48;;;8.57;;
15843;SDS011;50807;52.436;13.346;2023-01-19T01:15:48;9.30;;;8.50;;
15843;SDS011;50807;52.436;13.346;2023-01-19T01:16:21;10.05;;;8.75;;
15843;SDS011;50807;52.436;13.346;2023-01-19T01:16:52;10.30;;;9.20;;
15843;SDS011;50807;52.436;13.346;2023-01-19T01:17:24;9.73;;;8.77;;
15843;SDS011;50807;52.436;13.346;2023-01-19T01:17:55;9.85;;;8.85;;
15843;SDS011;50807;52.436;13.346;2023-01-19T01:18:26;10.67;;;9.03;;
15843;SDS011;50807;52.436;13.346;2023-01-19T01:18:57;10.40;;;9.17;;
15843;SDS011;50807;52.436;13.346;2023-01-19T01:19:28;9.80;;;8.87;;
15843;SDS011;50807;52.436;13.346;2023-01-19T01:20:00;9.90;;;8.70;;
15843;SDS011;50807;52.436;13.346;2023-01-19T01:20:31;9.77;;;8.77;;
15843;SDS011;50807;52.436;13.346;2023-01-19T01:21:04;10.20;;;9.02;;
15843;SDS011;50807;52.436;13.346;2023-01-19T01:21:36;9.70;;;8.80;;
15843;SDS011;50807;52.436;13.346;2023-01-19T01:22:07;9.38;;;8.43;;
15843;SDS011;50807;52.436;13.346;2023-01-19T01:22:40;9.38;;;8.40;;
15843;SDS011;50807;52.436;13.346;2023-01-19T01:23:15;9.90;;;8.80;;
15843;SDS011;50807;52.436;13.346;2023-01-19T01:23:51;10.90;;;8.50;;
15843;SDS011;50807;52.436;13.346;2023-01-19T01:24:23;9.50;;;8.60;;
15843;SDS011;50807;52.436;13.346;2023-01-19T01:24:54;9.73;;;8.73;;
15843;SDS011;50807;52.436;13.346;2023-01-19T01:25:25;10.93;;;9.30;;
15843;SDS011;50807;52.436;13.346;2023-01-19T01:25:59;9.73;;;8.82;;
15843;SDS011;50807;52.436;13.346;2023-01-19T01:26:31;9.23;;;8.32;;
15843;SDS011;50807;52.436;13.346;2023-01-19T01:27:01;9.40;;;8.43;;
15843;SDS011;50807;52.436;13.346;2023-01-19T01:27:33;9.45;;;8.55;;
15843;SDS011;50807;52.436;13.346;2023-01-19T01:28:05;9.33;;;8.43;;
15843;SDS011;50807;52.436;13.346;2023-01-19T01:28:37;9.38;;;8.55;;
15843;SDS011;50807;52.436;13.346;2023-01-19T01:29:08;9.93;;;8.93;;
15843;SDS011;50807;52.436;13.346;2023-01-19T01:29:40;10.60;;;8.75;;
15843;SDS011;50807;52.436;13.346;2023-01-19T01:30:15;9.60;;;8.60;;
15843;SDS011;50807;52.436;13.346;2023-01-19T01:30:47;9.43;;;8.52;;
15843;SDS011;50807;52.436;13.346;2023-01-19T01:31:22;10.32;;;8.98;;
15843;SDS011;50807;52.436;13.346;2023-01-19T01:31:53;9.48;;;8.48;;
15843;SDS011;50807;52.436;13.346;2023-01-19T01:32:25;9.77;;;8.82;;
15843;SDS011;50807;52.436;13.346;2023-01-19T01:32:56;9.27;;;8.37;;
15843;SDS011;50807;52.436;13.346;2023-01-19T01:33:27;9.40;;;8.50;;
15843;SDS011;50807;52.436;13.346;2023-01-19T01:34:00;8.88;;;8.07;;
15843;SDS011;50807;52.436;13.346;2023-01-19T01:34:31;8.93;;;8.03;;
15843;SDS011;50807;52.436;13.346;2023-01-19T01:35:01;9.37;;;8.47;;
15843;SDS011;50807;52.436;13.346;2023-01-19T01:35:33;10.13;;;9.10;;
15843;SDS011;50807;52.436;13.346;2023-01-19T01:36:05;10.85;;;9.23;;
15843;SDS011;50807;52.436;13.346;2023-01-19T01:36:37;9.10;;;8.20;;
15843;SDS011;50807;52.436;13.346;2023-01-19T01:37:07;9.00;;;8.10;;
15843;SDS011;50807;52.436;13.346;2023-01-19T01:37:39;9.20;;;8.00;;
15843;SDS011;50807;52.436;13.346;2023-01-19T01:38:11;9.20;;;8.30;;
15843;SDS011;50807;52.436;13.346;2023-01-19T01:38:43;9.23;;;8.33;;
15843;SDS011;50807;52.436;13.346;2023-01-19T01:39:15;8.82;;;7.93;;
15843;SDS011;50807;52.436;13.346;2023-01-19T01:39:46;9.03;;;8.17;;
15843;SDS011;50807;52.436;13.346;2023-01-19T01:40:17;9.90;;;8.90;;
15843;SDS011;50807;52.436;13.346;2023-01-19T01:40:51;9.60;;;8.73;;
15843;SDS011;50807;52.436;13.346;2023-01-19T01:41:22;10.57;;;9.30;;
15843;SDS011;50807;52.436;13.346;2023-01-19T01:41:53;9.80;;;8.53;;
15843;SDS011;50807;52.436;13.346;2023-01-19T01:42:25;9.45;;;8.45;;
15843;SDS011;50807;52.436;13.346;2023-01-19T01:43:02;9.55;;;8.38;;
15843;SDS011;50807;52.436;13.346;2023-01-19T01:43:40;9.53;;;8.63;;
15843;SDS011;50807;52.436;13.346;2023-01-19T01:45:29;9.77;;;8.75;;
15843;SDS011;50807;52.436;13.346;2023-01-19T01:46:03;10.43;;;8.68;;
15843;SDS011;50807;52.436;13.346;2023-01-19T01:46:34;8.77;;;7.97;;
15843;SDS011;50807;52.436;13.346;2023-01-19T01:47:05;9.10;;;8.20;;
15843;SDS011;50807;52.436;13.346;2023-01-19T01:47:37;9.17;;;8.20;;
15843;SDS011;50807;52.436;13.346;2023-01-19T01:48:15;9.25;;;8.35;;
15843;SDS011;50807;52.436;13.346;2023-01-19T01:48:52;9.30;;;8.27;;
15843;SDS011;50807;52.436;13.346;2023-01-19T01:49:32;9.00;;;8.20;;
15843;SDS011;50807;52.436;13.346;2023-01-19T01:50:05;9.87;;;8.10;;
15843;SDS011;50807;52.436;13.346;2023-01-19T01:50:44;9.93;;;8.93;;
15843;SDS011;50807;52.436;13.346;2023-01-19T01:51:36;9.27;;;8.48;;
15843;SDS011;50807;52.436;13.346;2023-01-19T01:52:11;8.85;;;7.97;;
15843;SDS011;50807;52.436;13.346;2023-01-19T01:52:48;8.93;;;8.10;;
15843;SDS011;50807;52.436;13.346;2023-01-19T01:53:23;9.75;;;8.85;;
15843;SDS011;50807;52.436;13.346;2023-01-19T01:54:02;9.55;;;8.68;;
15843;SDS011;50807;52.436;13.346;2023-01-19T01:54:43;9.15;;;7.93;;
15843;SDS011;50807;52.436;13.346;2023-01-19T01:55:14;9.57;;;8.68;;
15843;SDS011;50807;52.436;13.346;2023-01-19T01:55:47;9.30;;;8.40;;
15843;SDS011;50807;52.436;13.346;2023-01-19T01:56:20;9.50;;;8.38;;
15843;SDS011;50807;52.436;13.346;2023-01-19T01:57:00;8.93;;;7.72;;
15843;SDS011;50807;52.436;13.346;2023-01-19T01:57:42;8.93;;;8.10;;
15843;SDS011;50807;52.436;13.346;2023-01-19T01:58:18;9.50;;;8.20;;
15843;SDS011;50807;52.436;13.346;2023-01-19T01:58:50;10.07;;;8.90;;
15843;SDS011;50807;52.436;13.346;2023-01-19T01:59:23;9.63;;;8.73;;
15843;SDS011;50807;52.436;13.346;2023-01-19T01:59:58;9.88;;;8.88;;
15843;SDS011;50807;52.436;13.346;2023-01-19T02:00:30;9.10;;;8.20;;
15843;SDS011;50807;52.436;13.346;2023-01-19T02:01:21;9.75;;;8.55;;
15843;SDS011;50807;52.436;13.346;2023-01-19T02:02:12;8.93;;;8.00;;
15843;SDS011;50807;52.436;13.346;2023-01-19T02:03:08;8.25;;;7.35;;
15843;SDS011;50807;52.436;13.346;2023-01-19T02:03:39;8.13;;;7.38;;
15843;SDS011;50807;52.436;13.346;2023-01-19T02:04:10;8.47;;;7.57;;
15843;SDS011;50807;52.436;13.346;2023-01-19T02:04:43;9.32;;;8.13;;
15843;SDS011;50807;52.436;13.346;2023-01-19T02:05:20;9.02;;;8.13;;
15843;SDS011;50807;52.436;13.346;2023-01-19T02:05:57;9.40;;;8.50;;
15843;SDS011;50807;52.436;13.346;2023-01-19T02:06:34;9.63;;;7.97;;
15843;SDS011;50807;52.436;13.346;2023-01-19T02:07:25;9.13;;;8.32;;
15843;SDS011;50807;52.436;13.346;2023-01-19T02:08:27;9.98;;;8.98;;
15843;SDS011;50807;52.436;13.346;2023-01-19T02:09:24;7.97;;;7.18;;
15843;SDS011;50807;52.436;13.346;2023-01-19T02:10:20;7.95;;;7.18;;
15843;SDS011;50807;52.436;13.346;2023-01-19T02:11:09;8.05;;;7.28;;
15843;SDS011;50807;52.436;13.346;2023-01-19T02:11:59;8.23;;;7.43;;
15843;SDS011;50807;52.436;13.346;2023-01-19T02:12:48;8.77;;;7.93;;
15843;SDS011;50807;52.436;13.346;2023-01-19T02:13:39;9.80;;;8.27;;
15843;SDS011;50807;52.436;13.346;2023-01-19T02:14:14;9.15;;;7.93;;
15843;SDS011;50807;52.436;13.346;2023-01-19T02:14:44;8.00;;;7.30;;
15843;SDS011;50807;52.436;13.346;2023-01-19T02:15:17;8.80;;;7.97;;
15843;SDS011;50807;52.436;13.346;2023-01-19T02:15:49;9.77;;;8.77;;
15843;SDS011;50807;52.436;13.346;2023-01-19T02:16:23;10.48;;;8.88;;
15843;SDS011;50807;52.436;13.346;2023-01-19T02:16:54;9.27;;;8.30;;
15843;SDS011;50807;52.436;13.346;2023-01-19T02:17:25;9.27;;;8.07;;
15843;SDS011;50807;52.436;13.346;2023-01-19T02:17:57;10.00;;;8.98;;
15843;SDS011;50807;52.436;13.346;2023-01-19T02:18:29;9.30;;;8.45;;
15843;SDS011;50807;52.436;13.346;2023-01-19T02:19:01;8.68;;;7.82;;
15843;SDS011;50807;52.436;13.346;2023-01-19T02:19:36;8.77;;;7.95;;
15843;SDS011;50807;52.436;13.346;2023-01-19T02:20:12;10.88;;;9.77;;
15843;SDS011;50807;52.436;13.346;2023-01-19T02:20:46;9.50;;;8.60;;
15843;SDS011;50807;52.436;13.346;2023-01-19T02:21:30;9.85;;;8.50;;
15843;SDS011;50807;52.436;13.346;2023-01-19T02:22:13;9.27;;;8.38;;
15843;SDS011;50807;52.436;13.346;2023-01-19T02:22:52;10.93;;;9.43;;
15843;SDS011;50807;52.436;13.346;2023-01-19T02:23:41;9.75;;;8.75;;
15843;SDS011;50807;52.436;13.346;2023-01-19T02:24:15;9.95;;;8.95;;
15843;SDS011;50807;52.436;13.346;2023-01-19T02:24:46;9.48;;;8.43;;
15843;SDS011;50807;52.436;13.346;2023-01-19T02:25:19;9.40;;;8.50;;
15843;SDS011;50807;52.436;13.346;2023-01-19T02:25:50;9.90;;;8.90;;
15843;SDS011;50807;52.436;13.346;2023-01-19T02:26:24;10.52;;;9.43;;
15843;SDS011;50807;52.436;13.346;2023-01-19T02:27:00;10.10;;;9.10;;
15843;SDS011;50807;52.436;13.346;2023-01-19T02:27:33;10.70;;;8.77;;
15843;SDS011;50807;52.436;13.346;2023-01-19T02:28:06;10.55;;;9.52;;
15843;SDS011;50807;52.436;13.346;2023-01-19T02:28:38;10.23;;;9.23;;
15843;SDS011;50807;52.436;13.346;2023-01-19T02:29:15;9.85;;;8.93;;
15843;SDS011;50807;52.436;13.346;2023-01-19T02:29:49;9.85;;;8.85;;
15843;SDS011;50807;52.436;13.346;2023-01-19T02:30:20;10.50;;;9.50;;
15843;SDS011;50807;52.436;13.346;2023-01-19T02:30:53;10.93;;;9.75;;
15843;SDS011;50807;52.436;13.346;2023-01-19T02:31:24;9.93;;;9.02;;
15843;SDS011;50807;52.436;13.346;2023-01-19T02:31:57;10.05;;;9.15;;
15843;SDS011;50807;52.436;13.346;2023-01-19T02:32:31;10.40;;;9.38;;
15843;SDS011;50807;52.436;13.346;2023-01-19T02:33:02;10.90;;;9.73;;
15843;SDS011;50807;52.436;13.346;2023-01-19T02:33:32;10.13;;;9.13;;
15843;SDS011;50807;52.436;13.346;2023-01-19T02:34:05;9.70;;;8.52;;
15843;SDS011;50807;52.436;13.346;2023-01-19T02:34:38;10.35;;;9.35;;
15843;SDS011;50807;52.436;13.346;2023-01-19T02:35:10;10.20;;;9.30;;
15843;SDS011;50807;52.436;13.346;2023-01-19T02:35:42;10.50;;;9.38;;
15843;SDS011;50807;52.436;13.346;2023-01-19T02:36:15;10.45;;;9.35;;
15843;SDS011;50807;52.436;13.346;2023-01-19T02:36:52;11.00;;;9.57;;
15843;SDS011;50807;52.436;13.346;2023-01-19T02:37:28;10.77;;;9.68;;
15843;SDS011;50807;52.436;13.346;2023-01-19T02:38:03;10.57;;;9.48;;
15843;SDS011;50807;52.436;13.346;2023-01-19T02:38:36;10.90;;;9.50;;
15843;SDS011;50807;52.436;13.346;2023-01-19T02:39:12;10.82;;;9.73;;
15843;SDS011;50807;52.436;13.346;2023-01-19T02:39:49;10.93;;;9.90;;
15843;SDS011;50807;52.436;13.346;2023-01-19T02:40:24;11.52;;;10.32;;
15843;SDS011;50807;52.436;13.346;2023-01-19T02:40:58;11.38;;;9.90;;
15843;SDS011;50807;52.436;13.346;2023-01-19T02:41:31;12.32;;;10.45;;
15843;SDS011;50807;52.436;13.346;2023-01-19T02:42:11;10.90;;;9.90;;
15843;SDS011;50807;52.436;13.346;2023-01-19T02:42:48;10.65;;;9.55;;
15843;SDS011;50807;52.436;13.346;2023-01-19T02:43:22;9.90;;;8.90;;
15843;SDS011;50807;52.436;13.346;2023-01-19T02:43:55;11.15;;;9.95;;
15843;SDS011;50807;52.436;13.346;2023-01-19T02:44:27;10.98;;;10.05;;
15843;SDS011;50807;52.436;13.346;2023-01-19T02:45:00;10.95;;;9.95;;
15843;SDS011;50807;52.436;13.346;2023-01-19T02:45:35;10.82;;;9.73;;
15843;SDS011;50807;52.436;13.346;2023-01-19T02:46:09;12.15;;;10.93;;
15843;SDS011;50807;52.436;13.346;2023-01-19T02:46:40;10.50;;;9.57;;
15843;SDS011;50807;52.436;13.346;2023-01-19T02:47:11;11.20;;;10.20;;
15843;SDS011;50807;52.436;13.346;2023-01-19T02:47:45;11.48;;;10.48;;
15843;SDS011;50807;52.436;13.346;2023-01-19T02:48:18;11.60;;;10.20;;
15843;SDS011;50807;52.436;13.346;2023-01-19T02:48:50;11.32;;;9.93;;
15843;SDS011;50807;52.436;13.346;2023-01-19T02:49:22;11.85;;;10.65;;
15843;SDS011;50807;52.436;13.346;2023-01-19T02:49:58;10.43;;;9.38;;
15843;SDS011;50807;52.436;13.346;2023-01-19T02:50:35;12.00;;;10.90;;
15843;SDS011;50807;52.436;13.346;2023-01-19T02:51:11;11.80;;;10.65;;
15843;SDS011;50807;52.436;13.346;2023-01-19T02:51:48;13.35;;;11.75;;
15843;SDS011;50807;52.436;13.346;2023-01-19T02:52:19;11.82;;;10.70;;
15843;SDS011;50807;52.436;13.346;2023-01-19T02:52:50;11.85;;;10.70;;
15843;SDS011;50807;52.436;13.346;2023-01-19T02:53:37;12.02;;;10.75;;
15843;SDS011;50807;52.436;13.346;2023-01-19T02:54:41;11.00;;;9.82;;
15843;SDS011;50807;52.436;13.346;2023-01-19T02:55:26;11.60;;;10.50;;
15843;SDS011;50807;52.436;13.346;2023-01-19T02:56:05;10.90;;;9.80;;
15843;SDS011;50807;52.436;13.346;2023-01-19T02:57:09;11.02;;;9.93;;
15843;SDS011;50807;52.436;13.346;2023-01-19T02:57:58;10.95;;;9.80;;
15843;SDS011;50807;52.436;13.346;2023-01-19T02:58:41;10.98;;;9.88;;
15843;SDS011;50807;52.436;13.346;2023-01-19T02:59:30;10.73;;;9.63;;
15843;SDS011;50807;52.436;13.346;2023-01-19T03:00:20;11.68;;;10.45;;
15843;SDS011;50807;52.436;13.346;2023-01-19T03:01:08;10.63;;;9.52;;
15843;SDS011;50807;52.436;13.346;2023-01-19T03:01:57;11.65;;;10.45;;
15843;SDS011;50807;52.436;13.346;2023-01-19T03:02:42;11.65;;;10.50;;
15843;SDS011;50807;52.436;13.346;2023-01-19T03:03:33;11.82;;;9.82;;
15843;SDS011;50807;52.436;13.346;2023-01-19T03:04:16;11.50;;;10.40;;
15843;SDS011;50807;52.436;13.346;2023-01-19T03:05:07;11.52;;;10.43;;
15843;SDS011;50807;52.436;13.346;2023-01-19T03:06:14;12.05;;;10.25;;
15843;SDS011;50807;52.436;13.346;2023-01-19T03:07:01;11.48;;;10.13;;
15843;SDS011;50807;52.436;13.346;2023-01-19T03:07:43;10.88;;;9.75;;
15843;SDS011;50807;52.436;13.346;2023-01-19T03:08:29;10.60;;;9.50;;
15843;SDS011;50807;52.436;13.346;2023-01-19T03:09:13;11.40;;;10.07;;
15843;SDS011;50807;52.436;13.346;2023-01-19T03:09:56;10.82;;;9.75;;
15843;SDS011;50807;52.436;13.346;2023-01-19T03:10:39;11.63;;;10.50;;
15843;SDS011;50807;52.436;13.346;2023-01-19T03:11:21;10.70;;;9.60;;
15843;SDS011;50807;52.436;13.346;2023-01-19T03:12:00;10.93;;;9.82;;
15843;SDS011;50807;52.436;13.346;2023-01-19T03:12:41;11.70;;;10.50;;
15843;SDS011;50807;52.436;13.346;2023-01-19T03:13:20;10.75;;;9.68;;
15843;SDS011;50807;52.436;13.346;2023-01-19T03:14:02;10.70;;;9.70;;
15843;SDS011;50807;52.436;13.346;2023-01-19T03:14:43;11.48;;;10.35;;
15843;SDS011;50807;52.436;13.346;2023-01-19T03:15:18;10.98;;;9.77;;
15843;SDS011;50807;52.436;13.346;2023-01-19T03:15:56;11.32;;;10.15;;
15843;SDS011;50807;52.436;13.346;2023-01-19T03:16:41;11.80;;;10.32;;
15843;SDS011;50807;52.436;13.346;2023-01-19T03:17:17;11.43;;;10.32;;
15843;SDS011;50807;52.436;13.346;2023-01-19T03:17:50;11.93;;;10.68;;
15843;SDS011;50807;52.436;13.346;2023-01-19T03:18:24;11.70;;;10.48;;
15843;SDS011;50807;52.436;13.346;2023-01-19T03:19:02;11.43;;;10.32;;
15843;SDS011;50807;52.436;13.346;2023-01-19T03:19:40;11.68;;;10.57;;
15843;SDS011;50807;52.436;13.346;2023-01-19T03:20:14;11.18;;;10.15;;
15843;SDS011;50807;52.436;13.346;2023-01-19T03:20:54;11.18;;;10.05;;
15843;SDS011;50807;52.436;13.346;2023-01-19T03:21:32;12.45;;;11.15;;
15843;SDS011;50807;52.436;13.346;2023-01-19T03:22:08;12.40;;;11.18;;
15843;SDS011;50807;52.436;13.346;2023-01-19T03:22:43;11.93;;;10.82;;
15843;SDS011;50807;52.436;13.346;2023-01-19T03:23:19;11.13;;;10.02;;
15843;SDS011;50807;52.436;13.346;2023-01-19T03:23:57;12.77;;;11.48;;
15843;SDS011;50807;52.436;13.346;2023-01-19T03:24:34;12.20;;;11.00;;
15843;SDS011;50807;52.436;13.346;2023-01-19T03:25:12;11.57;;;10.48;;
15843;SDS011;50807;52.436;13.346;2023-01-19T03:25:44;12.05;;;10.85;;